Time;durP1;ratioP1;P1;durP2;ratioP2;P2;SDS_P1;SDS_P2;PMS_P1;PMS_P2;Temp;Humidity;BMP_temperature;BMP_pressure;BME280_temperature;BME280_humidity;BME280_pressure;Samples;Min_cycle;Max_cycle;Signal;HPM_P1;HPM_P2
2020/06/09 00:03:46;;;;;;;11;10;;;;;;;12.27;90.57227;933.728;;;;
2020/06/09 00:08:34;;;;;;;10.2;9.3;;;;;;;12.26;90.66309;933.7654;;;;
2020/06/09 00:11:02;;;;;;;10.5;9.5;;;;;;;12.24;90.52051;933.7353;;;;
2020/06/09 00:13:27;;;;;;;11.2;10.1;;;;;;;12.17;91.0459;933.6426;;;;
2020/06/09 00:15:58;;;;;;;12.2;11;;;;;;;12.15;91.49902;933.6372;;;;
2020/06/09 00:18:19;;;;;;;11.6;10.5;;;;;;;12.14;91.70313;933.6364;;;;
2020/06/09 00:23:25;;;;;;;11.7;10.5;;;;;;;12.15;91.33789;933.5901;;;;
2020/06/09 00:25:37;;;;;;;11.4;10.4;;;;;;;12.15;91.38379;933.6028;;;;
2020/06/09 00:35:18;;;;;;;12.6;11.3;;;;;;;12.14;91.55371;933.4832;;;;
2020/06/09 00:40:06;;;;;;;11.8;10.7;;;;;;;12.1;91.49902;933.418;;;;
2020/06/09 00:45:08;;;;;;;11.6;10.5;;;;;;;12.15;91.5791;933.4153;;;;
2020/06/09 00:47:38;;;;;;;11.6;10.5;;;;;;;12.17;91.48145;933.3697;;;;
2020/06/09 00:49:50;;;;;;;10.8;9.7;;;;;;;12.22;91.24805;933.3842;;;;
2020/06/09 00:54:43;;;;;;;11.5;10.5;;;;;;;12.21;91.18945;933.3217;;;;
2020/06/09 00:57:56;;;;;;;11.2;10.1;;;;;;;12.2;91.28125;933.3049;;;;
2020/06/09 01:04:29;;;;;;;10.4;9.4;;;;;;;12.21;90.7666;933.2955;;;;
2020/06/09 01:10:23;;;;;;;10;9;;;;;;;12.31;90.56934;933.3326;;;;
2020/06/09 01:14:07;;;;;;;8.6;7.9;;;;;;;12.27;90.9043;933.2802;;;;
2020/06/09 01:18:57;;;;;;;8.3;7.5;;;;;;;12.23;90.89453;933.2676;;;;
2020/06/09 01:21:26;;;;;;;7.7;6.9;;;;;;;12.26;90.55859;933.202;;;;
2020/06/09 01:23:56;;;;;;;8.2;7.4;;;;;;;12.23;90.58691;933.2803;;;;
2020/06/09 01:26:13;;;;;;;7.5;6.9;;;;;;;12.25;90.63477;933.2755;;;;
2020/06/09 01:31:10;;;;;;;7.8;7.1;;;;;;;12.25;90.43066;933.2619;;;;
2020/06/09 01:33:36;;;;;;;8.7;7.6;;;;;;;12.24;90.91016;933.2587;;;;
2020/06/09 01:40:51;;;;;;;9.7;8.7;;;;;;;12.26;90.58301;933.217;;;;
2020/06/09 01:43:26;;;;;;;10.3;9.2;;;;;;;12.29;90.51855;933.2545;;;;
2020/06/09 01:45:55;;;;;;;11.5;10.3;;;;;;;12.27;90.65234;933.2299;;;;
2020/06/09 01:48:28;;;;;;;10.9;9.8;;;;;;;12.3;90.57715;933.2903;;;;
2020/06/09 02:01:57;;;;;;;10;9.1;;;;;;;12.25;90.51074;933.2204;;;;
2020/06/09 02:05:15;;;;;;;9.9;8.9;;;;;;;12.26;90.52441;933.1564;;;;
2020/06/09 02:10:13;;;;;;;9;8.1;;;;;;;12.29;90.98828;933.09;;;;
2020/06/09 02:17:16;;;;;;;8.3;7.6;;;;;;;12.26;91.13379;933.087;;;;
2020/06/09 02:22:10;;;;;;;9.1;8.2;;;;;;;12.35;90.69238;933.1089;;;;
2020/06/09 02:24:46;;;;;;;9.2;8.4;;;;;;;12.33;90.92871;933.0611;;;;
2020/06/09 02:31:50;;;;;;;8.9;8.1;;;;;;;12.16;91.82129;933.0322;;;;
2020/06/09 02:34:21;;;;;;;9.1;8.1;;;;;;;12.15;91.94531;933.0817;;;;
2020/06/09 02:36:46;;;;;;;8.1;7.4;;;;;;;12.15;92.07324;932.9867;;;;
2020/06/09 02:39:02;;;;;;;8.1;7.2;;;;;;;12.19;91.91895;933.1119;;;;
2020/06/09 02:44:31;;;;;;;7.9;7.1;;;;;;;12.23;91.65137;933.06;;;;
2020/06/09 02:51:02;;;;;;;7.8;7;;;;;;;12.34;91.26367;933.0881;;;;
2020/06/09 02:53:27;;;;;;;7.7;7;;;;;;;12.26;91.77344;933.0606;;;;
2020/06/09 02:55:52;;;;;;;8.2;7.5;;;;;;;12.31;91.41797;933.1035;;;;
2020/06/09 02:58:17;;;;;;;7.7;7;;;;;;;12.27;91.06445;933.1308;;;;
2020/06/09 03:00:44;;;;;;;8.3;7.4;;;;;;;12.36;91.07227;933.1208;;;;
2020/06/09 03:03:09;;;;;;;6.8;6.1;;;;;;;12.49;90.49316;933.1219;;;;
2020/06/09 03:05:36;;;;;;;6.4;5.8;;;;;;;12.46;90.39551;933.0989;;;;
2020/06/09 03:08:01;;;;;;;7.6;6.9;;;;;;;12.35;91.17383;933.1959;;;;
2020/06/09 03:10:55;;;;;;;7.9;7.1;;;;;;;12.43;90.9248;933.1638;;;;
2020/06/09 03:13:08;;;;;;;9.1;8.3;;;;;;;12.36;91.28027;933.0904;;;;
2020/06/09 03:15:28;;;;;;;9.2;8.4;;;;;;;12.32;91.00586;933.1091;;;;
2020/06/09 03:17:54;;;;;;;9.2;8.3;;;;;;;12.29;90.87402;933.1013;;;;
2020/06/09 03:20:19;;;;;;;10;9;;;;;;;12.29;91.16211;933.0796;;;;
2020/06/09 03:22:45;;;;;;;9;8.1;;;;;;;12.33;91.1582;933.1017;;;;
2020/06/09 03:25:10;;;;;;;7.3;6.7;;;;;;;12.31;91.0166;933.0891;;;;
2020/06/09 03:27:36;;;;;;;7.6;6.9;;;;;;;12.29;90.9541;933.0852;;;;
2020/06/09 03:30:01;;;;;;;7.9;7.2;;;;;;;12.3;91.08203;933.1171;;;;
2020/06/09 03:32:28;;;;;;;8.5;7.6;;;;;;;12.3;91.06055;933.1442;;;;
2020/06/09 03:34:53;;;;;;;8.5;7.6;;;;;;;12.27;91.2959;933.0765;;;;
2020/06/09 03:37:18;;;;;;;8;7.2;;;;;;;12.28;91.1377;933.13;;;;
2020/06/09 03:39:44;;;;;;;8;7.3;;;;;;;12.28;91.25195;933.106;;;;
2020/06/09 03:42:09;;;;;;;8.2;7.4;;;;;;;12.27;91.22559;933.1125;;;;
2020/06/09 03:44:34;;;;;;;8.6;7.8;;;;;;;12.23;91.59766;933.0895;;;;
2020/06/09 03:47:11;;;;;;;9.3;8.4;;;;;;;12.15;91.78516;933.0785;;;;
2020/06/09 03:49:27;;;;;;;8.7;7.9;;;;;;;12.18;91.72168;933.0256;;;;
2020/06/09 03:51:52;;;;;;;7.7;7.1;;;;;;;12.19;91.60938;933.0862;;;;
2020/06/09 03:54:18;;;;;;;7.4;6.7;;;;;;;12.32;90.69629;933.1266;;;;
2020/06/09 03:56:43;;;;;;;7.9;7.1;;;;;;;12.25;90.99414;933.0783;;;;
2020/06/09 03:59:08;;;;;;;8;7.3;;;;;;;12.27;91.36328;933.103;;;;
2020/06/09 04:02:28;;;;;;;8.8;8;;;;;;;12.31;91.16602;933.0955;;;;
2020/06/09 04:04:54;;;;;;;8.4;7.7;;;;;;;12.33;91.1123;933.105;;;;
2020/06/09 04:07:22;;;;;;;9;8;;;;;;;12.34;91.12598;933.1184;;;;
2020/06/09 04:09:52;;;;;;;7.9;7;;;;;;;12.41;90.96875;933.0885;;;;
2020/06/09 04:12:11;;;;;;;6.8;6.2;;;;;;;12.4;91;933.1133;;;;
2020/06/09 04:14:36;;;;;;;6.5;5.9;;;;;;;12.42;90.74121;933.0513;;;;
2020/06/09 04:17:07;;;;;;;5.8;5.3;;;;;;;12.33;90.68848;933.0611;;;;
2020/06/09 04:19:31;;;;;;;5.6;5.1;;;;;;;12.27;90.99805;933.0765;;;;
2020/06/09 04:21:54;;;;;;;5.5;5;;;;;;;12.28;90.97461;933.0622;;;;
2020/06/09 04:24:18;;;;;;;5.6;5.1;;;;;;;12.31;90.99414;933.0364;;;;
2020/06/09 04:26:43;;;;;;;4.8;4.4;;;;;;;12.32;90.93848;933.0339;;;;
2020/06/09 04:29:08;;;;;;;5.7;5.1;;;;;;;12.36;90.87695;933.096;;;;
2020/06/09 04:31:36;;;;;;;6.4;5.8;;;;;;;12.32;91.08594;933.058;;;;
2020/06/09 04:34:07;;;;;;;6.5;5.9;;;;;;;12.35;90.89844;933.0769;;;;
2020/06/09 04:38:52;;;;;;;5.5;5;;;;;;;12.39;90.63281;933.1125;;;;
2020/06/09 04:41:17;;;;;;;4.9;4.5;;;;;;;12.4;90.51758;933.1373;;;;
2020/06/09 04:43:42;;;;;;;5.2;4.6;;;;;;;12.42;90.56934;933.1725;;;;
2020/06/09 04:46:07;;;;;;;5.3;4.8;;;;;;;12.43;90.68652;933.1326;;;;
2020/06/09 04:48:34;;;;;;;5.4;4.9;;;;;;;12.41;90.53516;933.147;;;;
2020/06/09 04:51:00;;;;;;;5.4;4.9;;;;;;;12.44;90.45898;933.1685;;;;
2020/06/09 04:53:26;;;;;;;5.6;5.1;;;;;;;12.45;90.78125;933.1813;;;;
2020/06/09 04:55:51;;;;;;;6.1;5.6;;;;;;;12.46;90.96875;933.1292;;;;
2020/06/09 04:58:18;;;;;;;6.1;5.5;;;;;;;12.51;90.49609;933.1936;;;;
2020/06/09 05:00:43;;;;;;;5.9;5.3;;;;;;;12.53;90.62695;933.1863;;;;
2020/06/09 05:03:10;;;;;;;5.9;5.3;;;;;;;12.52;90.38379;933.1423;;;;
2020/06/09 05:05:35;;;;;;;5.8;5.2;;;;;;;12.53;90.51172;933.1607;;;;
2020/06/09 05:08:00;;;;;;;5.7;5.1;;;;;;;12.54;90.76758;933.092;;;;
2020/06/09 05:10:28;;;;;;;5.2;4.7;;;;;;;12.55;90.65332;933.044;;;;
2020/06/09 05:12:54;;;;;;;5.8;5.2;;;;;;;12.58;90.85352;933.0247;;;;
2020/06/09 05:15:19;;;;;;;5.9;5.4;;;;;;;12.63;90.63574;933.0446;;;;
2020/06/09 05:17:44;;;;;;;6;5.4;;;;;;;12.64;90.62598;933.1083;;;;
2020/06/09 05:20:11;;;;;;;5.6;5.1;;;;;;;12.7;90.31836;933.0305;;;;
2020/06/09 05:22:36;;;;;;;5.5;5;;;;;;;12.75;90.14355;933.0261;;;;
2020/06/09 05:25:01;;;;;;;5.8;5.3;;;;;;;12.82;90.08008;933.1017;;;;
2020/06/09 05:27:26;;;;;;;6;5.4;;;;;;;12.87;89.80273;933.1166;;;;
2020/06/09 05:29:52;;;;;;;5.9;5.4;;;;;;;12.92;90.08789;933.1186;;;;
2020/06/09 05:32:17;;;;;;;6.3;5.2;;;;;;;12.97;89.77734;933.163;;;;
2020/06/09 05:34:45;;;;;;;6.2;5.1;;;;;;;12.99;89.26465;933.1755;;;;
2020/06/09 05:37:10;;;;;;;5.3;4.8;;;;;;;13.07;88.31641;933.2159;;;;
2020/06/09 05:39:35;;;;;;;5.6;4.6;;;;;;;13.08;88.07715;933.1326;;;;
2020/06/09 05:42:00;;;;;;;5.4;4.7;;;;;;;13.02;88.80078;933.1852;;;;
2020/06/09 05:44:29;;;;;;;5.3;4.8;;;;;;;13.07;88.52441;933.1256;;;;
2020/06/09 05:46:54;;;;;;;5.6;4.5;;;;;;;13.1;88.02539;933.1597;;;;
2020/06/09 05:49:20;;;;;;;5.1;4;;;;;;;13.09;87.67871;933.2166;;;;
2020/06/09 05:51:45;;;;;;;7.8;5.7;;;;;;;13.04;88.57324;933.2698;;;;
2020/06/09 05:54:10;;;;;;;5.1;4.6;;;;;;;13.02;87.58203;933.2051;;;;
2020/06/09 05:56:36;;;;;;;5.1;4.5;;;;;;;12.89;88.22266;933.2131;;;;
2020/06/09 05:59:01;;;;;;;6.5;5.1;;;;;;;12.89;88.94531;933.277;;;;
2020/06/09 06:01:26;;;;;;;6.4;5;;;;;;;12.96;89.74121;933.2238;;;;
2020/06/09 06:03:54;;;;;;;5.9;4.9;;;;;;;12.95;88.6709;933.2374;;;;
2020/06/09 06:06:20;;;;;;;6.7;5.7;;;;;;;13.05;89.44727;933.2034;;;;
2020/06/09 06:08:45;;;;;;;7;5.3;;;;;;;13.15;88.6543;933.204;;;;
2020/06/09 06:11:10;;;;;;;5.3;4.8;;;;;;;13.23;88.30371;933.2199;;;;
2020/06/09 06:13:37;;;;;;;4.7;4.2;;;;;;;13.26;87.27441;933.2715;;;;
2020/06/09 06:16:03;;;;;;;4.6;4.1;;;;;;;13.24;87.38574;933.2518;;;;
2020/06/09 06:18:29;;;;;;;4.6;4.2;;;;;;;13.3;87.56934;933.2513;;;;
2020/06/09 06:20:55;;;;;;;3.5;3;;;;;;;13.33;86.63281;933.1758;;;;
2020/06/09 06:23:20;;;;;;;4.2;3.8;;;;;;;13.33;87.32227;933.3278;;;;
2020/06/09 06:25:48;;;;;;;3.2;2.6;;;;;;;13.25;86.46875;933.3221;;;;
2020/06/09 06:28:13;;;;;;;3.8;2.6;;;;;;;13.24;86.37305;933.3086;;;;
2020/06/09 06:30:41;;;;;;;2.7;2.4;;;;;;;13.29;85.86719;933.3129;;;;
2020/06/09 06:33:07;;;;;;;3.3;3;;;;;;;13.31;86.11133;933.3184;;;;
2020/06/09 06:35:32;;;;;;;3.5;2.9;;;;;;;13.39;86.57617;933.3384;;;;
2020/06/09 06:37:57;;;;;;;4.2;2;;;;;;;13.34;85.42969;933.3716;;;;
2020/06/09 06:40:23;;;;;;;2.5;1.7;;;;;;;13.4;85.23535;933.3751;;;;
2020/06/09 06:42:49;;;;;;;2.2;1.8;;;;;;;13.45;85.03516;933.3469;;;;
2020/06/09 06:45:14;;;;;;;2.3;1.8;;;;;;;13.52;86.41895;933.2927;;;;
2020/06/09 06:47:41;;;;;;;2.6;1.9;;;;;;;13.55;86.04492;933.3931;;;;
2020/06/09 06:50:12;;;;;;;3.2;2.1;;;;;;;13.62;87.07129;933.4039;;;;
2020/06/09 06:52:38;;;;;;;1.9;1.3;;;;;;;13.75;84.03711;933.465;;;;
2020/06/09 06:55:03;;;;;;;3.2;1.6;;;;;;;13.82;84.82129;933.4437;;;;
2020/06/09 06:57:28;;;;;;;2.2;1.8;;;;;;;13.91;85.44727;933.4076;;;;
2020/06/09 06:59:53;;;;;;;2;1.4;;;;;;;13.97;84.50586;933.4156;;;;
2020/06/09 07:02:20;;;;;;;1.4;1.3;;;;;;;14.11;81.82715;933.4031;;;;
2020/06/09 07:04:45;;;;;;;2.8;1.6;;;;;;;14.21;82.26074;933.4034;;;;
2020/06/09 07:07:10;;;;;;;3.9;1.9;;;;;;;14.36;82.86523;933.3562;;;;
2020/06/09 07:09:35;;;;;;;2.2;1.7;;;;;;;14.41;82.85059;933.3964;;;;
2020/06/09 07:12:04;;;;;;;2.5;2;;;;;;;14.59;81.0293;933.4114;;;;
2020/06/09 07:14:39;;;;;;;3.2;2.5;;;;;;;14.66;81.28516;933.4604;;;;
2020/06/09 07:16:53;;;;;;;2.6;2.4;;;;;;;14.75;81.07129;933.4456;;;;
2020/06/09 07:19:18;;;;;;;2.9;2.6;;;;;;;14.84;77.47852;933.454;;;;
2020/06/09 07:21:44;;;;;;;2.7;2.5;;;;;;;14.93;79.12109;933.4152;;;;
2020/06/09 07:24:09;;;;;;;2.4;2.2;;;;;;;14.96;78.03125;933.3994;;;;
2020/06/09 07:29:00;;;;;;;1.7;1.6;;;;;;;15.08;76.45996;933.4066;;;;
2020/06/09 07:31:25;;;;;;;2.1;1.9;;;;;;;15.22;78.27344;933.4369;;;;
2020/06/09 07:33:50;;;;;;;2.4;2.1;;;;;;;15.43;77.80176;933.4424;;;;
2020/06/09 07:36:15;;;;;;;2.4;2.2;;;;;;;15.69;77.92969;933.4232;;;;
2020/06/09 07:38:42;;;;;;;2.3;2;;;;;;;16.03;74.91309;933.3903;;;;
2020/06/09 07:41:07;;;;;;;3.8;1.8;;;;;;;16.05;73.32227;933.3208;;;;
2020/06/09 07:43:33;;;;;;;2.4;1.9;;;;;;;16.04;74.15234;933.3234;;;;
2020/06/09 07:45:58;;;;;;;2.2;1.6;;;;;;;16.14;76.06738;933.3301;;;;
2020/06/09 07:48:24;;;;;;;1.8;1.5;;;;;;;16.45;72.91406;933.2827;;;;
2020/06/09 07:50:49;;;;;;;1.8;1.3;;;;;;;16.32;71.12305;933.33;;;;
2020/06/09 07:53:19;;;;;;;2.2;1.6;;;;;;;16.28;73.24414;933.3373;;;;
2020/06/09 07:55:44;;;;;;;2.6;1.9;;;;;;;16.38;74.75391;933.2952;;;;
2020/06/09 07:58:09;;;;;;;1.6;1.4;;;;;;;16.62;73.96191;933.3171;;;;
2020/06/09 08:00:35;;;;;;;2.5;1.6;;;;;;;16.72;73.57324;933.3176;;;;
2020/06/09 08:03:00;;;;;;;2.8;1.5;;;;;;;16.9;73.78906;933.3025;;;;
2020/06/09 08:05:25;;;;;;;1.5;1.4;;;;;;;16.82;73.53223;933.2996;;;;
2020/06/09 08:07:51;;;;;;;1.6;1.4;;;;;;;16.99;69.50391;933.3262;;;;
2020/06/09 08:10:16;;;;;;;2.8;1.8;;;;;;;17;71.91699;933.3203;;;;
2020/06/09 08:12:41;;;;;;;2.5;2;;;;;;;17.24;72.67578;933.3032;;;;
2020/06/09 08:15:10;;;;;;;1.8;1.6;;;;;;;17.45;69.7168;933.2693;;;;
2020/06/09 08:17:40;;;;;;;1.8;1.5;;;;;;;17.5;68.77441;933.2955;;;;
2020/06/09 08:20:02;;;;;;;3.1;2.1;;;;;;;17.71;69.48047;933.2375;;;;
2020/06/09 08:22:28;;;;;;;3.5;2.8;;;;;;;17.56;68.63379;933.2585;;;;
2020/06/09 08:25:08;;;;;;;3.3;3;;;;;;;17.76;69.29004;933.2275;;;;
2020/06/09 08:27:18;;;;;;;4.2;3;;;;;;;17.96;69.36719;933.2999;;;;
2020/06/09 08:29:45;;;;;;;3.5;2.9;;;;;;;18.06;70.20898;933.3141;;;;
2020/06/09 08:32:08;;;;;;;3.4;3.1;;;;;;;18.33;69.1582;933.3547;;;;
2020/06/09 08:34:34;;;;;;;3.5;3.2;;;;;;;18.45;67.92285;933.34;;;;
2020/06/09 08:37:00;;;;;;;3.9;3.5;;;;;;;18.55;68.03125;933.2961;;;;
2020/06/09 08:39:26;;;;;;;3.2;2.2;;;;;;;19.22;64.24414;933.3059;;;;
2020/06/09 08:42:03;;;;;;;3.2;2.4;;;;;;;19.47;63.08105;933.3016;;;;
2020/06/09 08:44:16;;;;;;;3.2;2.6;;;;;;;19.5;64.4834;933.2975;;;;
2020/06/09 08:46:41;;;;;;;2.6;2.2;;;;;;;20.1;61.60742;933.3492;;;;
2020/06/09 08:49:11;;;;;;;2.4;2.2;;;;;;;20.32;60.45703;933.3039;;;;
2020/06/09 08:51:48;;;;;;;4.3;2.6;;;;;;;20.64;59.94043;933.3765;;;;
2020/06/09 08:54:19;;;;;;;2.5;2.3;;;;;;;20.86;60.46094;933.358;;;;
2020/06/09 08:56:33;;;;;;;2.3;1.2;;;;;;;20.94;58.33203;933.3159;;;;
2020/06/09 09:11:19;;;;;;;1.7;1.4;;;;;;;20.68;58.66113;933.2883;;;;
2020/06/09 09:16:12;;;;;;;2.5;1.9;;;;;;;20.52;58.89648;933.3304;;;;
2020/06/09 09:20:49;;;;;;;4.3;2.2;;;;;;;20.47;60.02246;933.3137;;;;
2020/06/09 09:23:45;;;;;;;2.3;1.4;;;;;;;20.48;59.41602;933.3359;;;;
2020/06/09 09:25:36;;;;;;;2.1;1.6;;;;;;;20.48;58.68164;933.3511;;;;
2020/06/09 09:30:37;;;;;;;2.2;1.4;;;;;;;20.37;59.0166;933.3936;;;;
2020/06/09 09:33:00;;;;;;;2.5;1.9;;;;;;;20.16;58.97656;933.3674;;;;
2020/06/09 09:35:18;;;;;;;2.5;1.8;;;;;;;19.83;61.08984;933.4111;;;;
2020/06/09 09:37:54;;;;;;;3.2;1.9;;;;;;;19.69;60.39355;933.4034;;;;
2020/06/09 09:42:34;;;;;;;1.9;1.3;;;;;;;19.85;61.73535;933.437;;;;
2020/06/09 09:47:59;;;;;;;2.4;1.8;;;;;;;19.4;61.61426;933.3958;;;;
2020/06/09 09:56:01;;;;;;;2.3;1.6;;;;;;;19.81;62.20703;933.4131;;;;
2020/06/09 09:57:08;;;;;;;3.7;1.7;;;;;;;19.81;63.04688;933.4073;;;;
2020/06/09 09:59:29;;;;;;;5.5;1.5;;;;;;;19.67;62.65527;933.3513;;;;
2020/06/09 10:04:33;;;;;;;2.3;1.9;;;;;;;19.95;63.33594;933.4166;;;;
2020/06/09 10:06:53;;;;;;;2.8;2;;;;;;;20.07;61.97559;933.361;;;;
2020/06/09 10:11:39;;;;;;;3.3;2.1;;;;;;;19.96;61.9834;933.3758;;;;
2020/06/09 10:14:17;;;;;;;3.9;1.6;;;;;;;19.89;60.30566;933.325;;;;
2020/06/09 10:16:28;;;;;;;5.6;1.8;;;;;;;19.96;61.21387;933.3477;;;;
2020/06/09 10:19:08;;;;;;;1.7;1.6;;;;;;;20.15;60.70313;933.359;;;;
2020/06/09 10:23:42;;;;;;;1.9;1.7;;;;;;;19.83;61.76758;933.3819;;;;
2020/06/09 10:26:06;;;;;;;1.9;1.6;;;;;;;19.77;61.94434;933.4031;;;;
2020/06/09 10:28:31;;;;;;;2.2;1.6;;;;;;;19.85;61.4541;933.3764;;;;
2020/06/09 10:33:45;;;;;;;1.6;1.5;;;;;;;20.02;60.74316;933.4393;;;;
2020/06/09 10:38:14;;;;;;;1.8;1.6;;;;;;;19.74;60.71582;933.4825;;;;
2020/06/09 10:47:58;;;;;;;2.2;1.6;;;;;;;19.68;61.71094;933.5588;;;;
2020/06/09 10:50:56;;;;;;;1.6;1.4;;;;;;;19.72;60.85352;933.5446;;;;
2020/06/09 10:53:17;;;;;;;2.8;1.5;;;;;;;19.81;61.76367;933.526;;;;
2020/06/09 10:55:52;;;;;;;3.2;1.6;;;;;;;19.5;61.55762;933.4921;;;;
2020/06/09 10:57:50;;;;;;;3.1;1.7;;;;;;;19.7;61.53906;933.5377;;;;
2020/06/09 11:02:25;;;;;;;4.5;1.6;;;;;;;19.77;61.74707;933.5461;;;;
2020/06/09 11:04:57;;;;;;;3.8;1.6;;;;;;;19.8;61.77539;933.5555;;;;
2020/06/09 11:07:25;;;;;;;3.7;1.7;;;;;;;19.98;61.69434;933.5086;;;;
2020/06/09 11:12:02;;;;;;;2.7;1.6;;;;;;;19.73;61.29785;933.5959;;;;
2020/06/09 11:14:24;;;;;;;3.9;1.8;;;;;;;19.74;61.12402;933.5778;;;;
2020/06/09 11:17:00;;;;;;;2.8;1.7;;;;;;;19.86;61.22168;933.54;;;;
2020/06/09 11:19:26;;;;;;;3.7;1.5;;;;;;;20.06;61.2041;933.5287;;;;
2020/06/09 11:22:06;;;;;;;6.4;1.9;;;;;;;20.35;60.79004;933.5421;;;;
2020/06/09 11:24:16;;;;;;;2.7;1.4;;;;;;;20.48;58.70508;933.4894;;;;
2020/06/09 11:26:42;;;;;;;2.6;1.8;;;;;;;20.49;58.37891;933.4292;;;;
2020/06/09 11:29:08;;;;;;;3.4;1.8;;;;;;;20.55;58.83008;933.433;;;;
2020/06/09 11:31:34;;;;;;;3.1;1.8;;;;;;;20.47;59.00586;933.4228;;;;
2020/06/09 11:33:59;;;;;;;2.7;2;;;;;;;20.71;58.41992;933.4044;;;;
2020/06/09 11:36:25;;;;;;;5.8;2.1;;;;;;;20.68;58.48633;933.3466;;;;
2020/06/09 11:38:50;;;;;;;5.2;1.9;;;;;;;20.74;58.90332;933.3976;;;;
2020/06/09 11:41:16;;;;;;;2.9;1.6;;;;;;;20.93;59.6875;933.3642;;;;
2020/06/09 11:43:41;;;;;;;2;1.3;;;;;;;21.05;58.28906;933.3566;;;;
2020/06/09 11:46:06;;;;;;;1.7;1.4;;;;;;;21.16;58.73535;933.4099;;;;
2020/06/09 11:48:31;;;;;;;1.5;1.2;;;;;;;20.95;58.31152;933.3373;;;;
2020/06/09 11:53:21;;;;;;;1.3;1.2;;;;;;;21.09;59.16113;933.3175;;;;
2020/06/09 11:55:53;;;;;;;2.2;1.5;;;;;;;20.8;57.63672;933.3389;;;;
2020/06/09 11:58:12;;;;;;;2.6;1.2;;;;;;;20.62;57.58984;933.3025;;;;
2020/06/09 12:00:57;;;;;;;1.4;1.1;;;;;;;20.46;58.77148;933.2752;;;;
2020/06/09 12:03:03;;;;;;;2.1;1.4;;;;;;;20.63;58.56055;933.2992;;;;
2020/06/09 12:05:28;;;;;;;1.4;1.3;;;;;;;20.72;58.37402;933.2773;;;;
2020/06/09 12:08:02;;;;;;;2.9;1.4;;;;;;;20.8;58.86426;933.2837;;;;
2020/06/09 12:10:30;;;;;;;2.8;1.3;;;;;;;20.76;57.78418;933.3022;;;;
2020/06/09 12:12:55;;;;;;;3.3;1.3;;;;;;;20.83;58.43457;933.2821;;;;
2020/06/09 12:15:21;;;;;;;3.2;1.2;;;;;;;20.95;57.2002;933.2386;;;;
2020/06/09 12:17:47;;;;;;;1.6;1.1;;;;;;;20.72;58.60742;933.3145;;;;
2020/06/09 12:20:13;;;;;;;1.4;1;;;;;;;20.69;58.25391;933.2199;;;;
2020/06/09 12:22:38;;;;;;;3.3;1.3;;;;;;;20.56;58.68066;933.2001;;;;
2020/06/09 12:25:07;;;;;;;4.4;1.1;;;;;;;20.38;59.49805;933.173;;;;
2020/06/09 12:27:34;;;;;;;1.3;1.1;;;;;;;20.3;59.73145;933.176;;;;
2020/06/09 12:29:59;;;;;;;2;1.2;;;;;;;20.23;59.81543;933.173;;;;
2020/06/09 12:32:25;;;;;;;4;1.3;;;;;;;20.01;59.95996;933.185;;;;
2020/06/09 12:34:50;;;;;;;2.8;1.1;;;;;;;20.01;61.41797;933.1842;;;;
2020/06/09 12:37:16;;;;;;;1.9;1.1;;;;;;;20.28;61.03613;933.163;;;;
2020/06/09 12:39:41;;;;;;;3.5;1.1;;;;;;;20.49;61.3457;933.1649;;;;
2020/06/09 12:42:07;;;;;;;2.2;1.2;;;;;;;20.35;61.0459;933.187;;;;
2020/06/09 12:44:33;;;;;;;3.5;1.3;;;;;;;20.27;61.54785;933.1835;;;;
2020/06/09 12:46:58;;;;;;;2.5;1;;;;;;;20.45;60.5459;933.1217;;;;
2020/06/09 12:49:24;;;;;;;3.4;1;;;;;;;20.5;59.89746;933.1855;;;;
2020/06/09 12:51:49;;;;;;;6.2;1.2;;;;;;;20.63;59.23828;933.2164;;;;
2020/06/09 12:54:15;;;;;;;3.1;1.2;;;;;;;20.6;60.16895;933.2464;;;;
2020/06/09 12:56:40;;;;;;;1.3;1.1;;;;;;;20.72;59.6709;933.2656;;;;
2020/06/09 12:59:08;;;;;;;1.1;1;;;;;;;20.63;59.19141;933.2749;;;;
2020/06/09 13:01:33;;;;;;;2;1;;;;;;;20.66;59.39355;933.2802;;;;
2020/06/09 13:03:58;;;;;;;1.9;1.1;;;;;;;20.41;60.33008;933.2369;;;;
2020/06/09 13:06:23;;;;;;;1.7;1;;;;;;;20.3;59.60352;933.1581;;;;
2020/06/09 13:08:48;;;;;;;3.4;1.1;;;;;;;20.05;60.31641;933.2476;;;;
2020/06/09 13:11:13;;;;;;;3.1;1.2;;;;;;;19.83;61.20801;933.2283;;;;
2020/06/09 13:13:38;;;;;;;2.1;1.2;;;;;;;19.62;62.40332;933.2809;;;;
2020/06/09 13:16:03;;;;;;;1.4;1.1;;;;;;;19.49;63.82813;933.3278;;;;
2020/06/09 13:18:29;;;;;;;2.8;1.1;;;;;;;19.41;64.10742;933.3002;;;;
2020/06/09 13:21:59;;;;;;;1.8;1.2;;;;;;;19.15;65.23535;933.3664;;;;
2020/06/09 13:24:10;;;;;;;1.5;1.1;;;;;;;18.85;64.67871;933.3769;;;;
2020/06/09 13:28:10;;;;;;;1.4;1.1;;;;;;;18.8;66.70898;933.2432;;;;
2020/06/09 13:30:35;;;;;;;2.8;1.3;;;;;;;18.48;66.55469;933.2918;;;;
2020/06/09 13:33:16;;;;;;;1.9;1.2;;;;;;;18.32;67.20605;933.3233;;;;
2020/06/09 13:35:25;;;;;;;1.6;1.4;;;;;;;18.16;67.74902;933.3268;;;;
2020/06/09 13:37:51;;;;;;;2.4;1.3;;;;;;;17.99;68.38477;933.3345;;;;
2020/06/09 13:40:16;;;;;;;2.3;1.1;;;;;;;18.06;67.83984;933.3608;;;;
2020/06/09 13:42:44;;;;;;;2;1.4;;;;;;;17.94;68.86719;933.3967;;;;
2020/06/09 13:45:09;;;;;;;3.1;1.4;;;;;;;17.7;69.16406;933.3909;;;;
2020/06/09 13:47:36;;;;;;;2;1.7;;;;;;;17.6;69.39355;933.3339;;;;
2020/06/09 13:50:01;;;;;;;5.2;1.9;;;;;;;17.52;70.93359;933.3675;;;;
2020/06/09 13:52:29;;;;;;;3.6;1.6;;;;;;;17.68;69.39453;933.281;;;;
2020/06/09 13:54:54;;;;;;;2.3;1.7;;;;;;;17.36;70.73535;933.2875;;;;
2020/06/09 13:57:19;;;;;;;2.5;1.5;;;;;;;17.5;70.94336;933.3132;;;;
2020/06/09 13:59:44;;;;;;;2.4;1.4;;;;;;;17.66;70.07617;933.2023;;;;
2020/06/09 14:02:09;;;;;;;1.8;1.2;;;;;;;17.63;69.88672;933.2255;;;;
2020/06/09 14:04:35;;;;;;;1.9;1.2;;;;;;;17.62;69.87012;933.2839;;;;
2020/06/09 14:07:00;;;;;;;1.3;1.2;;;;;;;17.55;70.81152;933.307;;;;
2020/06/09 14:09:25;;;;;;;1.6;1.3;;;;;;;17.66;70.26172;933.2474;;;;
2020/06/09 14:11:50;;;;;;;2.9;1.3;;;;;;;17.55;70.24219;933.2734;;;;
2020/06/09 14:14:15;;;;;;;3.4;1.4;;;;;;;17.5;70.7002;933.2697;;;;
2020/06/09 14:16:41;;;;;;;3.1;1.3;;;;;;;17.42;70.9541;933.2612;;;;
2020/06/09 14:19:08;;;;;;;4.2;1.3;;;;;;;17.57;71.21094;933.2848;;;;
2020/06/09 14:21:55;;;;;;;3.7;1.3;;;;;;;17.71;71.11621;933.3084;;;;
2020/06/09 14:26:31;;;;;;;2.2;1;;;;;;;17.79;70.01563;933.3489;;;;
2020/06/09 14:28:49;;;;;;;1.1;1;;;;;;;17.62;70.79883;933.4095;;;;
2020/06/09 14:31:50;;;;;;;1.8;1.1;;;;;;;17.5;71.24512;933.3542;;;;
2020/06/09 14:33:39;;;;;;;1.4;1;;;;;;;17.41;70.47656;933.3264;;;;
2020/06/09 14:36:08;;;;;;;1.5;1.2;;;;;;;17.43;71.46582;933.372;;;;
2020/06/09 14:38:33;;;;;;;1.6;1.5;;;;;;;17.28;72.14844;933.3361;;;;
2020/06/09 14:40:57;;;;;;;1.7;1.6;;;;;;;17.3;71.93262;933.3114;;;;
2020/06/09 14:45:59;;;;;;;3.5;2.1;;;;;;;17.35;72.49609;933.3183;;;;
2020/06/09 14:48:24;;;;;;;4.2;2.3;;;;;;;17.16;73.62305;933.3331;;;;
2020/06/09 14:50:52;;;;;;;2.6;2.4;;;;;;;17.24;74.12305;933.3452;;;;
2020/06/09 14:53:23;;;;;;;2.6;2.4;;;;;;;17.16;74.29688;933.3658;;;;
2020/06/09 14:55:55;;;;;;;2.6;2.4;;;;;;;17.04;74.34668;933.3542;;;;
2020/06/09 14:58:21;;;;;;;2.7;2.5;;;;;;;16.9;74.66895;933.3558;;;;
2020/06/09 15:03:00;;;;;;;2.6;2.4;;;;;;;16.74;76.57715;933.3903;;;;
2020/06/09 15:08:10;;;;;;;3;2.7;;;;;;;16.67;76.63477;933.3653;;;;
2020/06/09 15:12:39;;;;;;;4.3;3.1;;;;;;;16.82;76.87012;933.3091;;;;
2020/06/09 15:15:00;;;;;;;3.6;2.5;;;;;;;17.03;75.88574;933.3167;;;;
2020/06/09 15:17:27;;;;;;;2.9;2.6;;;;;;;17.17;74.69238;933.3343;;;;
2020/06/09 15:19:51;;;;;;;3.2;2.2;;;;;;;17.31;74.36914;933.3199;;;;
2020/06/09 15:22:16;;;;;;;2.6;2.3;;;;;;;17.36;74.17969;933.335;;;;
2020/06/09 15:24:41;;;;;;;2.6;2.2;;;;;;;17.2;73.91016;933.303;;;;
2020/06/09 15:27:07;;;;;;;2.4;2.2;;;;;;;17.27;73.23633;933.2992;;;;
2020/06/09 15:29:32;;;;;;;3.7;2.4;;;;;;;17.18;73.20996;933.3542;;;;
2020/06/09 15:31:57;;;;;;;2.7;2.5;;;;;;;17.18;73.09375;933.3301;;;;
2020/06/09 15:34:23;;;;;;;2.8;2.6;;;;;;;17.25;73.00293;933.3568;;;;
2020/06/09 15:36:48;;;;;;;2.5;2.3;;;;;;;17.29;72.26367;933.3326;;;;
2020/06/09 15:39:13;;;;;;;3.7;2.8;;;;;;;17.25;72.52441;933.274;;;;
2020/06/09 15:41:38;;;;;;;3.9;2.7;;;;;;;17.32;72.28125;933.3271;;;;
2020/06/09 15:44:04;;;;;;;3;2.7;;;;;;;17.27;71.87988;933.3081;;;;
2020/06/09 15:46:30;;;;;;;2.8;2.5;;;;;;;17.2;72.38965;933.3144;;;;
2020/06/09 15:48:55;;;;;;;3.9;2.7;;;;;;;17.04;73.11816;933.2103;;;;
2020/06/09 15:51:21;;;;;;;3.1;2.9;;;;;;;17.08;72.80078;933.2662;;;;
2020/06/09 15:53:46;;;;;;;3.1;2.8;;;;;;;17.05;73.03809;933.2439;;;;
2020/06/09 15:56:13;;;;;;;3.9;3;;;;;;;17.06;73.25879;933.2573;;;;
2020/06/09 15:58:38;;;;;;;4;3.6;;;;;;;17.01;73.2041;933.3017;;;;
2020/06/09 16:01:03;;;;;;;4.8;3.6;;;;;;;17.09;73.27637;933.3162;;;;
2020/06/09 16:03:28;;;;;;;4.6;3.6;;;;;;;17.05;73.8252;933.2922;;;;
2020/06/09 16:05:53;;;;;;;4.3;3.1;;;;;;;16.95;73.9375;933.2797;;;;
2020/06/09 16:08:18;;;;;;;4.8;2.8;;;;;;;16.7;74.72852;933.2859;;;;
2020/06/09 16:10:48;;;;;;;2.8;2.6;;;;;;;16.66;74.84961;933.2988;;;;
2020/06/09 16:13:13;;;;;;;2.8;2.6;;;;;;;16.7;75.27246;933.3091;;;;
2020/06/09 16:15:38;;;;;;;3.3;3;;;;;;;16.54;75.56836;933.3273;;;;
2020/06/09 16:18:07;;;;;;;3.8;2.9;;;;;;;16.49;75.3291;933.3131;;;;
2020/06/09 16:20:35;;;;;;;3;2.7;;;;;;;16.42;75.47949;933.308;;;;
2020/06/09 16:23:00;;;;;;;3.6;2.7;;;;;;;16.41;75.74414;933.3331;;;;
2020/06/09 16:25:26;;;;;;;3.2;2.9;;;;;;;16.4;75.76367;933.3187;;;;
2020/06/09 16:27:51;;;;;;;4.3;3.2;;;;;;;16.2;76.79395;933.2985;;;;
2020/06/09 16:30:22;;;;;;;3.4;3.1;;;;;;;16.2;77.31445;933.3756;;;;
2020/06/09 16:32:48;;;;;;;3.3;3;;;;;;;16.13;77.67285;933.385;;;;
2020/06/09 16:35:15;;;;;;;3.5;3.2;;;;;;;16.13;77.78906;933.3738;;;;
2020/06/09 16:37:40;;;;;;;4.7;3.5;;;;;;;16.17;77.80664;933.3553;;;;
2020/06/09 16:40:05;;;;;;;4.7;3.2;;;;;;;16.09;77.72266;933.4003;;;;
2020/06/09 16:42:31;;;;;;;3.9;3.6;;;;;;;16.11;77.82031;933.4022;;;;
2020/06/09 16:44:56;;;;;;;3.6;3.3;;;;;;;16.09;77.74609;933.4476;;;;
2020/06/09 16:47:22;;;;;;;4.4;4;;;;;;;16.08;78.06836;933.3956;;;;